Strona główna
METAR-TAF:

METAR-TAF

Lotnisko :

Port lotniczy Bruksela

Bruksela, Belgia

Szerokość geograficzna: 50-54N, Długość geograficzna: 004-32E, wysokość: 55 m

Aktualna obserwacja pogody

Raport powstał 30 minut temu, godzina 18:50 UTC
Wiatr 8 kt od zachodnio-południowy zachód
Temperatura 20°C
Wilgotność 68%
Ciśnienie 1012 hPa
Widzialność 10 km lub więcej
Mało chmury na wysokości 1500 ft
Przerywane chmury na wysokości 2600 ft

METAR: EBBR 181850Z 25008KT 9999 FEW015 BKN026 20/14 Q1012 NOSIG

czas: 21:20 (19:20 UTC)

Prognoza

Raport powstał 2 godziny i 10 minut temu, godzina 17:10 UTC
Prognoza ważna od 18 godzina 18 UTC do 19 godzina 24 UTC
Wiatr 8 kt od południowy zachód
Widzialność 10 km lub więcej
Mało chmury na wysokości 3500 ft
Rozproszone chmury na wysokości 4500 ft

TAF: EBBR 181710Z 1818/1924 23008KT 9999 FEW035 SCT045

Obserwacja i prognoza pogody dla ponad 4000 lotnisk (raport METAR i TAF).

Dostępne stacje oznaczono żółtymi i czerwonymi punktami na mapie.

Najedź kursorem aby zobaczyć nazwę stacji.

Kliknij aby zobaczyć obserwacje i prognozy pogody.

Aby zmienić mapę: kliknij na zielony przycisk z czarnym krzyżykiem, aby powiększyć; na zielony przycisk z myślnikiem, aby pomniejszyć; na zielone strzałki, aby przejść do map sąsiednich.


METAR-TAF: